Beverley, Western Australia

4:23 PM AWST on January 27, 2015 (GMT +0800)
York Western Australia | Change Station
CLOSE
Current Station
Personal Weather Station
Location: York, Western Australia
Elevation: 620 ft
Nearby Weather Stations

Elev 620 ft 31.86 °S, 116.76 °E | Updated 2 seconds ago

Clear
Clear
98.0 °F
Feels Like 93 °F
N
11.5
Wind Variable Wind from ESE
Gusts 11.5 mph

Today
High -- | Low -- °F
--% Chance of Precip.
Yesterday
High -- | Low -- °F
Precip. -- in
5:31 AM 7:17 PM
First Quarter, 52% visible
Pressure 29.65 in
Visibility -9999.0 miles
Clouds
Heat Index 93 °F
Dew Point 30 °F
Humidity 9%
Rainfall 0.00 in
Snow Depth Not available.
UV Not available.
Pollen Not available.
Air Quality Not available.
Flu Activity Not available.
METAR YPPH 270800Z 21017KT CAVOK 37/08 Q1004 RMK SMOKE ALOFT

More Conditions Fewer Conditions

Pressure 29.65 in
Visibility -9999.0 miles
Clouds
Heat Index 93 °F
Dew Point 30 °F
Humidity 9%
Rainfall 0.00 in
Snow Depth Not available.
UV Not available.
Pollen Not available.
Air Quality Not available.
Flu Activity Not available.
METAR YPPH 270800Z 21017KT CAVOK 37/08 Q1004 RMK SMOKE ALOFT

More Conditions Fewer Conditions

10-Day Weather Forecast

Almanac

Astronomy

Jan. 27, 2015 Rise Set
Actual Time
Civil Twilight
Nautical Twilight
Astronomical Twilight
Moon
Length of Visible Light
Length of Day
Tomorrow will be .
, % of the Moon is Illuminated

Today's Extremes

Country Highs Country Lows

Community

WunderPhotos

Upload Photos

1,790,543 photos uploaded!

WunderBlogs® & News

Nearby

Air Quality

  Air Quality AQ Index Pollutant
Not available.

Snow Depth

Station Depth Elevation

Earthquake Activity

City Distance Mag. Time & Date
Minimum magnitude displayed is 2.5.

Coastal Water Temperatures

Place Temperature

Nearby Weather Stations